Time;durP1;ratioP1;P1;durP2;ratioP2;P2;SDS_P1;SDS_P2;PMS_P1;PMS_P2;Temp;Humidity;BMP_temperature;BMP_pressure;BME280_temperature;BME280_humidity;BME280_pressure;Samples;Min_cycle;Max_cycle;Signal;HPM_P1;HPM_P2
2022/05/24 00:01:25;;;;;;;;;5.33;5.00;;;;;16.09;74.87;100262.50;5084177;27;46573;-68
2022/05/24 00:03:50;;;;;;;;;4.00;2.67;;;;;15.95;73.81;100258.78;5072979;27;45368;-68
2022/05/24 00:06:16;;;;;;;;;2.00;2.00;;;;;15.78;74.62;100273.81;5088588;27;45599;-68
2022/05/24 00:08:42;;;;;;;;;2.67;2.67;;;;;15.87;74.49;100267.13;5075113;27;45613;-68
2022/05/24 00:11:07;;;;;;;;;4.33;3.00;;;;;15.94;74.86;100268.06;5078172;27;45497;-68
2022/05/24 00:13:33;;;;;;;;;3.00;3.00;;;;;15.93;74.57;100278.16;5090634;27;45513;-68
2022/05/24 00:15:58;;;;;;;;;2.67;2.67;;;;;15.76;74.54;100270.41;5080347;27;45436;-68
2022/05/24 00:18:29;;;;;;;;;3.00;3.00;;;;;15.79;73.98;100286.44;5097088;27;45563;-68
2022/05/24 00:20:58;;;;;;;;;3.00;3.00;;;;;15.85;73.74;100296.63;5077061;27;45547;-68
2022/05/24 00:23:27;;;;;;;;;2.33;2.33;;;;;15.73;73.74;100304.50;5092543;27;45416;-68
2022/05/24 00:25:55;;;;;;;;;3.67;3.33;;;;;15.62;73.29;100312.38;5076339;27;45573;-68
2022/05/24 00:28:25;;;;;;;;;3.00;3.00;;;;;15.63;73.21;100308.59;5092442;27;45459;-68
2022/05/24 00:30:51;;;;;;;;;3.00;3.00;;;;;15.67;73.41;100312.63;5065739;28;47015;-68
2022/05/24 00:33:17;;;;;;;;;3.00;3.00;;;;;15.64;71.90;100310.25;5087029;27;45169;-68
2022/05/24 00:35:44;;;;;;;;;4.00;2.67;;;;;15.44;72.27;100316.31;5065064;28;45679;-68
2022/05/24 00:38:13;;;;;;;;;3.00;3.00;;;;;15.50;72.43;100307.31;5088436;27;45457;-68
2022/05/24 00:40:45;;;;;;;;;2.00;2.00;;;;;15.50;71.92;100314.69;5074198;27;45456;-68
2022/05/24 00:43:31;;;;;;;;;2.33;2.33;;;;;15.53;72.17;100298.78;5078996;27;45560;-68
2022/05/24 00:46:03;;;;;;;;;3.67;2.00;;;;;15.51;72.26;100278.91;5066508;28;45466;-69
2022/05/24 00:48:39;;;;;;;;;2.67;1.00;;;;;15.21;71.51;100282.72;5070605;28;45494;-68
2022/05/24 00:51:11;;;;;;;;;2.00;2.00;;;;;14.97;71.84;100291.22;5075652;27;46489;-68
2022/05/24 00:53:48;;;;;;;;;3.00;2.00;;;;;14.65;73.72;100287.78;5067527;28;45641;-68
2022/05/24 00:56:28;;;;;;;;;1.00;1.00;;;;;14.65;73.90;100289.69;5082360;27;45376;-68
2022/05/24 00:58:59;;;;;;;;;1.00;1.00;;;;;14.61;74.12;100297.38;5098046;27;45425;-68
2022/05/24 01:01:33;;;;;;;;;5.33;3.00;;;;;14.63;74.32;100289.84;5091366;27;45467;-68
2022/05/24 01:03:59;;;;;;;;;3.67;2.00;;;;;14.44;73.66;100281.34;5083931;27;45403;-68
2022/05/24 01:06:25;;;;;;;;;2.00;2.00;;;;;14.39;74.24;100281.91;5082625;27;45485;-68
2022/05/24 01:08:53;;;;;;;;;2.00;2.00;;;;;14.33;74.17;100271.66;5087381;27;45573;-68
2022/05/24 01:11:21;;;;;;;;;3.67;1.67;;;;;14.37;74.69;100300.31;5079663;27;45279;-68
2022/05/24 01:13:47;;;;;;;;;2.00;2.00;;;;;14.31;74.57;100301.06;5087401;27;45229;-68
2022/05/24 01:16:13;;;;;;;;;3.00;1.33;;;;;14.29;74.39;100294.91;5088355;27;45446;-69
2022/05/24 01:18:38;;;;;;;;;2.00;2.00;;;;;14.32;74.48;100297.28;5095084;27;45555;-68
2022/05/24 01:21:08;;;;;;;;;4.00;3.00;;;;;14.32;74.91;100316.41;5078317;27;45440;-69
2022/05/24 01:23:52;;;;;;;;;4.33;2.67;;;;;14.21;74.21;100301.31;5091257;27;46074;-68
2022/05/24 01:26:39;;;;;;;;;1.33;1.33;;;;;14.29;74.44;100294.91;5083119;27;45689;-68
2022/05/24 01:29:07;;;;;;;;;2.00;2.00;;;;;14.27;73.58;100307.91;5074499;28;45622;-68
2022/05/24 01:37:09;;;;;;;;;2.00;2.00;;;;;14.45;73.80;100303.03;5086023;27;45406;-68
2022/05/24 01:39:35;;;;;;;;;1.00;1.00;;;;;14.30;73.16;100308.41;5075551;27;45424;-68
2022/05/24 01:42:01;;;;;;;;;1.67;1.67;;;;;14.26;72.83;100307.06;5083122;27;46653;-68
2022/05/24 01:44:34;;;;;;;;;2.00;1.67;;;;;14.40;73.21;100306.28;5074855;27;45250;-69
2022/05/24 01:47:00;;;;;;;;;1.33;1.33;;;;;14.35;73.43;100308.69;5068453;27;45347;-68
2022/05/24 01:49:31;;;;;;;;;4.00;2.00;;;;;14.30;72.78;100315.75;5072874;27;45308;-68
2022/05/24 01:52:12;;;;;;;;;1.00;1.00;;;;;14.28;72.63;100315.09;5066391;27;48494;-68
2022/05/24 01:54:45;;;;;;;;;2.00;1.00;;;;;14.30;72.41;100311.16;5081683;27;45408;-68
2022/05/24 01:57:26;;;;;;;;;1.33;1.00;;;;;13.95;72.18;100304.38;5094454;27;45439;-68
2022/05/24 01:59:55;;;;;;;;;1.00;1.00;;;;;13.92;72.04;100312.94;5070917;27;45390;-68
2022/05/24 02:02:20;;;;;;;;;4.00;2.00;;;;;14.06;73.14;100327.72;5092621;27;45417;-68
2022/05/24 02:04:46;;;;;;;;;2.00;1.00;;;;;14.11;72.47;100322.53;5074674;27;45225;-68
2022/05/24 02:07:18;;;;;;;;;0.00;0.00;;;;;14.16;72.84;100330.22;5089796;27;45259;-68
2022/05/24 02:09:48;;;;;;;;;2.67;1.00;;;;;14.17;72.43;100337.38;5061749;27;45575;-68
2022/05/24 02:12:21;;;;;;;;;1.00;1.00;;;;;14.23;73.26;100329.31;5072821;27;46489;-68
2022/05/24 02:14:58;;;;;;;;;0.33;0.33;;;;;14.09;73.04;100324.63;5061663;27;45306;-68
2022/05/24 02:17:29;;;;;;;;;2.33;1.00;;;;;14.12;74.58;100326.13;5093114;27;45357;-68
2022/05/24 02:19:58;;;;;;;;;1.00;1.00;;;;;14.12;75.56;100323.41;5080878;27;45338;-68
2022/05/24 02:22:27;;;;;;;;;2.00;1.00;;;;;13.99;75.84;100319.38;5088118;27;46132;-68
2022/05/24 02:24:55;;;;;;;;;2.00;1.00;;;;;13.96;75.27;100322.47;5094565;27;46203;-68
2022/05/24 02:27:21;;;;;;;;;1.00;1.00;;;;;14.01;75.96;100321.94;5091007;27;45440;-68
2022/05/24 02:29:46;;;;;;;;;1.33;1.33;;;;;13.95;76.08;100322.69;5077784;27;45424;-69
2022/05/24 02:32:11;;;;;;;;;2.00;2.00;;;;;13.83;76.00;100327.69;5086884;27;46419;-68
2022/05/24 02:34:37;;;;;;;;;0.00;0.00;;;;;13.78;77.32;100313.72;5075869;27;45325;-68
2022/05/24 02:37:03;;;;;;;;;3.00;3.00;;;;;13.75;76.49;100322.25;5088181;27;45387;-69
2022/05/24 02:39:29;;;;;;;;;1.00;1.00;;;;;13.75;76.87;100333.19;5077148;27;45551;-69
2022/05/24 02:41:54;;;;;;;;;1.33;1.00;;;;;13.73;76.75;100334.41;5080712;27;46560;-68
2022/05/24 02:44:20;;;;;;;;;1.00;0.00;;;;;13.60;76.65;100313.97;5077861;27;45340;-70
2022/05/24 02:46:47;;;;;;;;;2.33;0.00;;;;;13.63;76.16;100331.88;5078224;27;45448;-69
2022/05/24 02:49:13;;;;;;;;;1.33;1.33;;;;;13.55;76.71;100331.94;5077156;27;45452;-68
2022/05/24 02:51:40;;;;;;;;;2.00;2.00;;;;;13.53;76.70;100331.25;5062719;28;47177;-68
2022/05/24 02:54:07;;;;;;;;;1.00;1.00;;;;;13.42;76.54;100337.09;5074389;27;45428;-68
2022/05/24 02:56:32;;;;;;;;;2.00;1.00;;;;;13.30;77.14;100333.88;5068935;28;45377;-68
2022/05/24 02:58:58;;;;;;;;;1.00;1.00;;;;;13.35;77.03;100336.09;5073218;27;45487;-68
2022/05/24 03:01:29;;;;;;;;;2.33;0.67;;;;;13.35;76.66;100341.56;5070647;28;47320;-68
2022/05/24 03:03:55;;;;;;;;;1.00;1.00;;;;;13.39;76.90;100351.09;5101853;27;45313;-68
2022/05/24 03:06:23;;;;;;;;;1.00;1.00;;;;;13.35;76.90;100352.47;5089184;27;45413;-68
2022/05/24 03:14:20;;;;;;;;;2.00;1.00;;;;;13.51;76.57;100363.34;5078364;28;45455;-68
2022/05/24 03:16:52;;;;;;;;;1.00;1.00;;;;;13.54;76.43;100358.38;5084564;27;45461;-68
2022/05/24 03:19:18;;;;;;;;;1.67;1.67;;;;;13.46;77.07;100363.00;5064244;28;45492;-68
2022/05/24 03:21:44;;;;;;;;;3.33;2.00;;;;;13.42;76.41;100353.47;5087293;27;45699;-68
2022/05/24 03:24:10;;;;;;;;;1.67;1.67;;;;;13.34;77.02;100351.63;5074528;28;45404;-68
2022/05/24 03:26:37;;;;;;;;;2.00;2.00;;;;;13.46;77.10;100363.00;5071249;28;45774;-68
2022/05/24 03:29:03;;;;;;;;;2.00;2.00;;;;;13.46;77.11;100373.91;5073944;27;45508;-68
2022/05/24 03:31:28;;;;;;;;;1.00;1.00;;;;;13.41;76.79;100368.16;5069300;28;47856;-68
2022/05/24 03:33:53;;;;;;;;;2.67;1.00;;;;;13.32;76.77;100374.66;5081560;27;45343;-68
2022/05/24 03:36:20;;;;;;;;;0.67;0.33;;;;;13.25;77.13;100382.69;5081098;27;45294;-69
2022/05/24 03:38:45;;;;;;;;;4.00;2.00;;;;;13.32;76.93;100380.97;5079392;27;45255;-68
2022/05/24 03:41:11;;;;;;;;;4.00;2.67;;;;;13.29;76.88;100377.75;5066432;28;47842;-68
2022/05/24 03:43:36;;;;;;;;;1.33;1.33;;;;;13.22;76.96;100374.88;5071812;27;45297;-68
2022/05/24 03:46:05;;;;;;;;;2.00;2.00;;;;;13.18;77.66;100381.69;5079744;27;45382;-68
2022/05/24 03:48:31;;;;;;;;;3.00;2.67;;;;;13.06;76.59;100385.78;5082936;27;45450;-69
2022/05/24 03:50:57;;;;;;;;;1.00;1.00;;;;;13.00;76.69;100387.31;5076601;27;45414;-68
2022/05/24 03:53:24;;;;;;;;;2.00;1.33;;;;;13.05;77.28;100404.00;5082657;27;45412;-68
2022/05/24 03:55:49;;;;;;;;;1.00;1.00;;;;;12.94;76.88;100407.06;5065828;27;45350;-68
2022/05/24 03:58:15;;;;;;;;;1.67;1.67;;;;;12.97;76.73;100409.47;5099978;27;45457;-68
2022/05/24 04:00:42;;;;;;;;;2.33;2.33;;;;;13.06;76.91;100413.91;5070201;27;45586;-68
2022/05/24 04:03:08;;;;;;;;;1.33;1.33;;;;;13.04;76.36;100410.50;5082915;27;45402;-68
2022/05/24 04:05:34;;;;;;;;;2.00;1.00;;;;;13.01;76.90;100421.72;5080530;27;45569;-68
2022/05/24 04:08:01;;;;;;;;;1.00;1.00;;;;;13.04;77.09;100415.94;5072113;28;45441;-68
2022/05/24 04:10:28;;;;;;;;;2.00;2.00;;;;;13.05;76.45;100422.25;5073027;27;46584;-68
2022/05/24 04:12:53;;;;;;;;;2.33;2.33;;;;;12.96;76.34;100424.13;5079147;27;45274;-68
2022/05/24 04:15:19;;;;;;;;;1.00;1.00;;;;;13.01;76.96;100423.59;5069133;27;45618;-68
2022/05/24 04:17:46;;;;;;;;;1.00;1.00;;;;;12.86;76.98;100429.75;5098850;27;45206;-68
2022/05/24 04:20:13;;;;;;;;;3.00;1.00;;;;;12.93;77.35;100429.91;5076688;27;46042;-68
2022/05/24 04:22:39;;;;;;;;;3.00;1.00;;;;;13.00;77.03;100436.41;5092759;27;45325;-68
2022/05/24 04:25:06;;;;;;;;;2.00;1.00;;;;;13.04;76.73;100424.13;5078228;27;45498;-69
2022/05/24 04:27:31;;;;;;;;;2.67;2.00;;;;;13.09;76.44;100427.19;5091428;27;45583;-68
2022/05/24 04:29:57;;;;;;;;;2.67;2.00;;;;;13.10;76.74;100423.44;5075675;27;46437;-69
2022/05/24 04:32:23;;;;;;;;;1.33;0.00;;;;;13.15;76.05;100429.25;5091414;27;45433;-68
2022/05/24 04:34:48;;;;;;;;;2.00;1.00;;;;;13.33;76.91;100428.19;5090065;27;45483;-68
2022/05/24 04:37:14;;;;;;;;;1.00;1.00;;;;;13.42;75.88;100438.94;5086809;27;45259;-69
2022/05/24 04:39:39;;;;;;;;;0.67;0.67;;;;;13.43;74.95;100442.50;5072832;27;46952;-68
2022/05/24 04:42:23;;;;;;;;;2.00;2.00;;;;;13.52;75.12;100457.81;5082455;27;45271;-69
2022/05/24 04:45:00;;;;;;;;;1.67;1.67;;;;;13.52;74.18;100457.81;5068734;27;45448;-68
2022/05/24 04:47:28;;;;;;;;;1.00;1.00;;;;;13.38;73.98;100455.81;5087917;27;45429;-68
2022/05/24 04:49:56;;;;;;;;;1.67;1.00;;;;;13.37;74.68;100457.69;5063716;27;46867;-69
2022/05/24 04:52:28;;;;;;;;;2.00;1.00;;;;;13.43;74.41;100475.25;5093982;27;45332;-69
2022/05/24 04:54:54;;;;;;;;;1.00;1.00;;;;;13.30;74.09;100470.31;5071149;27;45452;-68
2022/05/24 04:57:20;;;;;;;;;2.00;2.00;;;;;13.20;73.89;100470.50;5108582;27;45533;-68
2022/05/24 04:59:46;;;;;;;;;1.00;1.00;;;;;13.19;74.36;100468.81;5061467;28;47539;-68
2022/05/24 05:02:12;;;;;;;;;1.00;1.00;;;;;13.19;73.66;100478.88;5090604;27;45429;-68
2022/05/24 05:04:38;;;;;;;;;2.00;2.00;;;;;13.30;73.40;100491.28;5070291;28;45364;-69
2022/05/24 05:07:04;;;;;;;;;2.00;1.00;;;;;13.27;73.41;100487.03;5090169;27;45412;-68
2022/05/24 05:09:34;;;;;;;;;1.33;1.00;;;;;13.39;73.16;100492.97;5060927;28;46729;-70
2022/05/24 05:12:08;;;;;;;;;1.33;1.33;;;;;13.45;73.29;100490.41;5086850;27;45507;-68
2022/05/24 05:14:35;;;;;;;;;1.00;1.00;;;;;13.42;72.11;100487.19;5099391;27;45393;-69
2022/05/24 05:17:02;;;;;;;;;1.00;1.00;;;;;13.59;71.61;100491.56;5068358;27;45892;-68
2022/05/24 05:19:28;;;;;;;;;3.00;1.00;;;;;13.79;71.60;100503.84;5083659;27;46212;-68
2022/05/24 05:21:54;;;;;;;;;1.00;1.00;;;;;14.09;70.77;100498.59;5083721;27;45233;-68
2022/05/24 05:24:19;;;;;;;;;1.00;0.00;;;;;15.40;66.59;100501.16;5082712;27;45403;-68
2022/05/24 05:26:44;;;;;;;;;1.00;1.00;;;;;16.23;61.88;100498.19;5081106;27;45486;-68
2022/05/24 05:29:10;;;;;;;;;1.00;1.00;;;;;15.90;62.82;100513.34;5081564;27;45246;-68
2022/05/24 05:31:35;;;;;;;;;1.00;1.00;;;;;15.12;64.72;100511.00;5080548;27;45352;-69
2022/05/24 05:34:01;;;;;;;;;2.00;1.33;;;;;14.84;65.97;100507.06;5079015;27;45183;-67
2022/05/24 05:36:29;;;;;;;;;1.00;1.00;;;;;14.38;66.82;100509.78;5065776;28;45463;-67
2022/05/24 05:38:55;;;;;;;;;1.00;1.00;;;;;14.38;67.03;100523.44;5076811;27;46818;-67
2022/05/24 05:41:31;;;;;;;;;2.67;1.00;;;;;14.66;67.88;100516.44;5076293;27;45534;-68
2022/05/24 05:43:59;;;;;;;;;3.00;1.00;;;;;14.76;67.27;100525.25;5074546;27;45434;-68
2022/05/24 05:46:24;;;;;;;;;1.00;1.00;;;;;14.85;67.20;100527.94;5073648;27;45349;-69
2022/05/24 05:48:50;;;;;;;;;2.00;2.00;;;;;14.90;67.39;100531.00;5071362;27;46339;-69
2022/05/24 05:51:17;;;;;;;;;2.00;2.00;;;;;15.07;66.96;100538.03;5080025;27;47956;-69
2022/05/24 05:53:43;;;;;;;;;3.00;3.00;;;;;14.90;65.67;100531.00;5075361;27;45306;-69
2022/05/24 05:56:16;;;;;;;;;2.00;2.00;;;;;14.79;66.30;100541.31;5076083;27;45347;-69
2022/05/24 05:58:41;;;;;;;;;2.00;2.00;;;;;15.07;66.15;100551.72;5073017;27;45477;-69
2022/05/24 06:01:13;;;;;;;;;2.00;2.00;;;;;15.15;65.68;100547.03;5073689;27;45246;-69
2022/05/24 06:03:38;;;;;;;;;0.00;0.00;;;;;15.22;65.57;100551.78;5089827;27;45316;-69
2022/05/24 06:06:04;;;;;;;;;1.67;1.67;;;;;15.37;65.57;100552.69;5073370;27;45170;-69
2022/05/24 06:08:29;;;;;;;;;3.00;1.00;;;;;15.42;64.71;100553.81;5075797;27;46014;-69
2022/05/24 06:10:54;;;;;;;;;2.00;2.00;;;;;15.48;64.33;100564.06;5067397;27;45465;-69
2022/05/24 06:13:20;;;;;;;;;2.00;1.67;;;;;15.50;63.63;100567.44;5101724;27;45321;-69
2022/05/24 06:15:49;;;;;;;;;0.00;0.00;;;;;15.37;64.21;100561.75;5073294;27;45436;-70
2022/05/24 06:18:15;;;;;;;;;1.67;1.33;;;;;15.29;64.25;100564.53;5090683;27;45384;-69
2022/05/24 06:20:40;;;;;;;;;1.00;1.00;;;;;15.36;64.16;100564.66;5071195;27;45282;-69
2022/05/24 06:23:05;;;;;;;;;0.67;0.67;;;;;15.52;64.06;100570.84;5070073;28;45466;-69
2022/05/24 06:25:31;;;;;;;;;3.67;2.00;;;;;15.57;63.36;100573.91;5069966;27;45553;-70
2022/05/24 06:27:57;;;;;;;;;2.00;2.00;;;;;15.73;63.35;100577.53;5087364;27;45315;-69
2022/05/24 06:30:24;;;;;;;;;1.00;1.00;;;;;15.80;62.59;100582.09;5068283;27;45355;-69
2022/05/24 06:32:50;;;;;;;;;0.00;0.00;;;;;15.53;62.79;100583.53;5075499;28;45287;-69
2022/05/24 06:35:17;;;;;;;;;1.00;1.00;;;;;15.49;63.81;100584.03;5070905;27;45242;-70
2022/05/24 06:37:42;;;;;;;;;2.33;2.33;;;;;15.57;63.59;100573.91;5086807;27;45569;-69
2022/05/24 06:40:13;;;;;;;;;1.00;1.00;;;;;15.31;63.14;100592.59;5068947;27;45314;-69
2022/05/24 06:42:39;;;;;;;;;2.00;0.67;;;;;15.44;63.75;100581.88;5100330;27;45250;-69
2022/05/24 06:45:05;;;;;;;;;3.00;2.00;;;;;15.78;63.75;100588.81;5066840;27;45305;-69
2022/05/24 06:47:32;;;;;;;;;2.00;2.00;;;;;15.70;62.75;100588.88;5097087;27;48455;-70
2022/05/24 06:49:58;;;;;;;;;1.00;1.00;;;;;15.43;61.73;100588.38;5065336;27;45594;-70
2022/05/24 06:52:23;;;;;;;;;1.33;1.00;;;;;15.45;62.80;100594.53;5092841;27;45361;-70
2022/05/24 06:54:49;;;;;;;;;2.67;1.67;;;;;15.65;62.67;100599.53;5062795;27;45525;-69
2022/05/24 06:57:15;;;;;;;;;3.67;3.00;;;;;15.90;62.16;100601.84;5107395;27;46982;-69
2022/05/24 07:02:25;;;;;;;;;2.67;2.67;;;;;16.23;61.35;100624.28;5087599;27;45395;-68
2022/05/24 07:04:58;;;;;;;;;1.67;1.67;;;;;16.12;60.45;100622.03;5089039;27;45476;-69
2022/05/24 07:07:24;;;;;;;;;1.00;1.00;;;;;16.01;61.04;100611.50;5087086;27;48118;-70
2022/05/24 07:09:50;;;;;;;;;1.00;1.00;;;;;15.83;60.55;100605.53;5064974;27;45380;-69
2022/05/24 07:12:23;;;;;;;;;1.67;1.67;;;;;15.86;60.80;100610.63;5106035;27;45414;-69
2022/05/24 07:14:49;;;;;;;;;1.00;1.00;;;;;15.68;60.62;100616.44;5082769;27;45254;-69
2022/05/24 07:17:17;;;;;;;;;4.33;2.67;;;;;15.89;60.86;100633.03;5089354;27;45433;-69
2022/05/24 07:19:42;;;;;;;;;2.00;2.00;;;;;16.11;60.33;100634.00;5097911;27;45419;-69
2022/05/24 07:22:08;;;;;;;;;4.67;3.00;;;;;15.98;60.58;100620.09;5091657;27;45407;-70
2022/05/24 07:24:34;;;;;;;;;2.67;1.00;;;;;15.95;59.59;100631.44;5099429;27;45292;-70
2022/05/24 07:26:59;;;;;;;;;6.33;3.00;;;;;15.86;60.22;100629.81;5086804;27;46785;-69
2022/05/24 07:29:25;;;;;;;;;2.67;2.67;;;;;16.12;60.29;100627.50;5083552;27;45285;-69
2022/05/24 07:31:51;;;;;;;;;2.67;2.67;;;;;15.93;59.99;100622.53;5069165;28;45323;-69
2022/05/24 07:34:17;;;;;;;;;3.00;1.67;;;;;16.17;59.46;100627.78;5082694;27;45308;-69
2022/05/24 07:36:43;;;;;;;;;3.00;1.33;;;;;16.24;59.08;100634.22;5081776;27;45317;-69
2022/05/24 07:39:09;;;;;;;;;1.00;1.00;;;;;16.50;58.37;100635.66;5090842;27;45396;-71
2022/05/24 07:47:07;;;;;;;;;3.00;3.00;;;;;16.98;56.54;100635.03;5082475;27;45299;-70
2022/05/24 07:49:33;;;;;;;;;2.67;2.33;;;;;17.06;56.33;100632.19;5073270;27;45473;-70
2022/05/24 07:51:59;;;;;;;;;3.00;3.00;;;;;17.26;56.40;100628.81;5077544;27;45529;-70
2022/05/24 07:54:24;;;;;;;;;2.00;2.00;;;;;17.22;55.04;100627.50;5089587;27;45173;-70
2022/05/24 07:56:50;;;;;;;;;3.33;2.67;;;;;16.62;54.95;100640.50;5092716;27;45328;-69
2022/05/24 07:59:15;;;;;;;;;1.00;1.00;;;;;16.93;56.22;100632.03;5068978;27;45273;-69
2022/05/24 08:01:40;;;;;;;;;2.00;2.00;;;;;17.37;55.36;100639.28;5087163;27;45402;-69
2022/05/24 08:04:06;;;;;;;;;1.33;1.33;;;;;17.60;55.41;100634.47;5083944;27;45933;-69
2022/05/24 08:06:31;;;;;;;;;0.00;0.00;;;;;17.68;53.78;100639.84;5082445;27;46091;-69
2022/05/24 08:08:57;;;;;;;;;2.00;0.00;;;;;17.79;53.23;100633.81;5086855;27;45338;-69
2022/05/24 08:11:23;;;;;;;;;3.33;3.00;;;;;17.84;53.42;100639.56;5082627;27;48228;-69
2022/05/24 08:13:48;;;;;;;;;1.00;1.00;;;;;17.68;51.55;100641.75;5080798;27;45363;-70
2022/05/24 08:16:13;;;;;;;;;1.00;1.00;;;;;17.47;52.13;100635.16;5079497;27;45298;-69
2022/05/24 08:18:39;;;;;;;;;0.67;0.67;;;;;17.77;52.97;100640.56;5106867;27;45444;-70
2022/05/24 08:21:04;;;;;;;;;4.00;2.00;;;;;18.22;52.01;100636.47;5077862;27;45644;-69
2022/05/24 08:23:30;;;;;;;;;2.00;1.00;;;;;18.12;51.15;100635.97;5092908;27;45697;-70
2022/05/24 08:25:56;;;;;;;;;3.33;2.33;;;;;18.20;51.10;100635.81;5077120;27;46405;-70
2022/05/24 08:28:22;;;;;;;;;2.00;1.00;;;;;18.33;51.32;100641.44;5087638;27;45424;-69
2022/05/24 08:30:50;;;;;;;;;4.00;1.00;;;;;18.57;51.27;100638.22;5073913;27;45497;-69
2022/05/24 08:33:16;;;;;;;;;2.33;2.00;;;;;18.74;49.67;100649.75;5089485;27;45403;-70
2022/05/24 08:35:43;;;;;;;;;1.00;1.00;;;;;18.19;50.06;100634.16;5072855;27;45289;-69
2022/05/24 08:38:09;;;;;;;;;3.00;1.00;;;;;18.14;50.47;100642.13;5084500;27;45432;-70
2022/05/24 08:40:37;;;;;;;;;0.67;0.67;;;;;18.29;50.66;100643.72;5071678;27;45602;-70
2022/05/24 08:43:16;;;;;;;;;3.00;1.67;;;;;18.27;49.75;100642.22;5070496;28;45499;-70
2022/05/24 08:49:17;;;;;;;;;4.00;2.00;;;;;18.13;50.11;100640.41;5074608;27;45468;-69
2022/05/24 08:52:00;;;;;;;;;1.67;0.67;;;;;18.44;49.86;100632.59;5088282;27;45437;-69
2022/05/24 08:54:41;;;;;;;;;0.33;0.33;;;;;18.34;48.48;100639.53;5063956;28;45168;-69
2022/05/24 08:57:11;;;;;;;;;2.67;1.00;;;;;18.36;49.05;100641.03;5092037;27;46151;-69
2022/05/24 08:59:47;;;;;;;;;1.00;1.00;;;;;18.65;48.96;100640.81;5066427;27;45305;-71
2022/05/24 09:02:13;;;;;;;;;3.67;2.00;;;;;18.58;48.02;100634.41;5076950;27;45628;-70
2022/05/24 09:04:38;;;;;;;;;3.00;2.00;;;;;18.82;48.94;100644.06;5082729;28;45467;-70
2022/05/24 09:07:03;;;;;;;;;2.33;2.00;;;;;18.70;47.75;100640.22;5086319;27;45449;-70
2022/05/24 09:09:38;;;;;;;;;2.00;1.00;;;;;19.02;47.71;100641.41;5061833;28;45276;-70
2022/05/24 09:12:07;;;;;;;;;1.00;1.00;;;;;19.26;47.82;100646.34;5086935;27;45432;-69
2022/05/24 09:14:51;;;;;;;;;1.00;1.00;;;;;18.73;47.04;100641.69;5086004;27;45245;-70
2022/05/24 09:17:38;;;;;;;;;4.00;2.00;;;;;18.58;47.16;100652.81;5110880;27;47295;-69
2022/05/24 09:20:26;;;;;;;;;2.00;0.33;;;;;18.85;47.50;100645.56;5075758;27;45489;-70
2022/05/24 09:23:25;;;;;;;;;3.00;1.00;;;;;19.23;45.90;100633.00;5089232;27;45410;-70
2022/05/24 09:25:52;;;;;;;;;0.33;0.33;;;;;19.74;46.07;100649.00;5085416;27;45799;-69
2022/05/24 09:28:17;;;;;;;;;0.67;0.67;;;;;20.27;44.28;100638.00;5103549;27;46915;-69
2022/05/24 09:30:43;;;;;;;;;2.00;0.67;;;;;20.53;42.43;100643.47;5069591;27;45519;-69
2022/05/24 09:33:22;;;;;;;;;2.00;0.67;;;;;20.81;42.06;100640.44;5081546;27;45571;-69
2022/05/24 09:35:51;;;;;;;;;0.33;0.33;;;;;20.92;41.80;100639.75;5073672;27;45378;-69
2022/05/24 09:38:22;;;;;;;;;2.00;0.00;;;;;21.12;41.69;100657.09;5071163;27;45413;-70
2022/05/24 09:40:52;;;;;;;;;2.00;0.00;;;;;20.77;40.77;100637.25;5080390;27;45343;-70
2022/05/24 09:43:27;;;;;;;;;2.00;0.67;;;;;20.83;41.34;100663.16;5079357;28;45537;-70
2022/05/24 09:46:04;;;;;;;;;2.33;1.00;;;;;20.79;41.74;100662.75;5079706;27;45409;-70
2022/05/24 09:48:34;;;;;;;;;1.00;1.00;;;;;20.80;41.17;100667.22;5076961;27;45541;-70
2022/05/24 09:51:01;;;;;;;;;0.00;0.00;;;;;20.83;40.75;100663.16;5064682;27;45778;-70
2022/05/24 09:53:30;;;;;;;;;1.00;0.00;;;;;20.51;41.59;100656.66;5081330;27;45467;-70
2022/05/24 09:56:20;;;;;;;;;1.00;1.00;;;;;20.61;40.26;100662.56;5071744;27;45402;-70
2022/05/24 09:58:58;;;;;;;;;1.00;1.00;;;;;20.53;41.69;100666.41;5074376;27;45582;-72
2022/05/24 10:01:43;;;;;;;;;2.00;0.33;;;;;19.92;42.31;100660.28;5077157;27;45527;-69
2022/05/24 10:04:40;;;;;;;;;0.33;0.00;;;;;19.68;43.42;100667.25;5081694;27;45259;-69
2022/05/24 10:07:20;;;;;;;;;0.00;0.00;;;;;18.84;43.36;100669.50;5066580;27;45416;-69
2022/05/24 10:10:09;;;;;;;;;1.67;0.67;;;;;19.08;44.17;100676.38;5062961;28;48436;-69
2022/05/24 10:13:04;;;;;;;;;0.67;0.67;;;;;19.66;42.39;100663.84;5094416;27;45247;-69
2022/05/24 10:15:37;;;;;;;;;1.00;1.00;;;;;19.18;43.02;100660.31;5079381;27;45235;-70
2022/05/24 10:18:41;;;;;;;;;0.00;0.00;;;;;19.75;44.03;100661.75;5096345;27;45274;-70
2022/05/24 10:21:29;;;;;;;;;2.00;2.00;;;;;19.72;43.33;100673.22;5088983;27;46591;-71
2022/05/24 10:24:11;;;;;;;;;0.67;0.67;;;;;20.15;41.83;100674.50;5090263;27;45478;-70
2022/05/24 10:26:41;;;;;;;;;1.67;1.00;;;;;19.89;42.06;100665.34;5083429;27;45372;-69
2022/05/24 10:29:15;;;;;;;;;1.00;1.00;;;;;19.40;42.59;100683.91;5092935;27;45448;-70
2022/05/24 10:31:54;;;;;;;;;1.33;1.00;;;;;19.10;43.51;100676.16;5089052;27;45659;-70
2022/05/24 10:40:33;;;;;;;;;1.33;1.33;;;;;20.74;42.71;100670.84;5071122;27;45483;-70
2022/05/24 10:43:17;;;;;;;;;1.67;1.67;;;;;20.74;40.65;100667.22;5083467;27;45552;-70
2022/05/24 10:46:05;;;;;;;;;2.67;0.33;;;;;20.70;39.90;100671.47;5074529;27;45527;-70
2022/05/24 10:49:01;;;;;;;;;2.00;0.00;;;;;20.41;40.42;100670.91;5076342;27;45426;-70
2022/05/24 10:51:38;;;;;;;;;3.00;2.33;;;;;20.78;40.57;100680.38;5084755;27;45314;-69
2022/05/24 10:54:26;;;;;;;;;1.67;1.67;;;;;21.19;39.84;100684.72;5074275;27;45401;-70
2022/05/24 10:56:55;;;;;;;;;2.33;1.00;;;;;21.72;38.67;100679.75;5068446;28;45482;-70
2022/05/24 10:59:39;;;;;;;;;0.33;0.00;;;;;22.45;37.72;100675.34;5063747;28;45263;-68
2022/05/24 11:02:42;;;;;;;;;0.00;0.00;;;;;21.14;37.88;100677.06;5092053;27;45439;-68
2022/05/24 11:05:25;;;;;;;;;5.00;0.33;;;;;20.54;39.19;100692.09;5069744;27;45397;-66
2022/05/24 11:08:35;;;;;;;;;0.33;0.00;;;;;20.78;39.43;100688.66;5074192;28;45313;-67
2022/05/24 11:11:36;;;;;;;;;0.00;0.00;;;;;20.47;40.21;100688.50;5080527;27;45272;-68
2022/05/24 11:14:41;;;;;;;;;1.67;1.67;;;;;21.03;39.89;100687.97;5095752;27;45078;-68
2022/05/24 11:17:10;;;;;;;;;0.67;0.67;;;;;21.38;39.54;100681.03;5084491;27;45512;-68
2022/05/24 11:19:36;;;;;;;;;2.00;1.00;;;;;21.01;38.85;100687.31;5084262;27;45163;-70
2022/05/24 11:22:39;;;;;;;;;0.00;0.00;;;;;20.38;39.78;100678.78;5089231;27;45494;-69
2022/05/24 11:25:20;;;;;;;;;1.33;1.33;;;;;20.79;40.75;100679.31;5076957;27;45212;-69
2022/05/24 11:27:53;;;;;;;;;1.00;1.00;;;;;20.82;39.88;100687.16;5105938;27;47289;-69
2022/05/24 11:30:33;;;;;;;;;0.33;0.33;;;;;20.93;39.32;100688.41;5088011;27;45391;-69
2022/05/24 11:33:12;;;;;;;;;4.00;3.00;;;;;21.37;38.80;100687.63;5084734;27;45436;-69
2022/05/24 11:35:40;;;;;;;;;2.67;1.00;;;;;21.70;38.29;100682.75;5072350;27;45361;-69
2022/05/24 11:38:16;;;;;;;;;6.00;4.00;;;;;21.70;37.67;100687.41;5085443;27;46250;-69
2022/05/24 11:40:54;;;;;;;;;1.33;1.33;;;;;21.53;38.05;100687.13;5071511;27;45457;-69
2022/05/24 11:43:34;;;;;;;;;1.00;1.00;;;;;21.97;37.32;100671.53;5080734;27;45482;-70
2022/05/24 11:46:06;;;;;;;;;0.33;0.33;;;;;22.52;35.00;100681.66;5081676;27;45657;-70
2022/05/24 11:48:42;;;;;;;;;2.00;0.00;;;;;21.81;33.69;100689.47;5074639;27;45342;-70
2022/05/24 11:51:29;;;;;;;;;0.00;0.00;;;;;21.25;34.88;100683.88;5067681;27;45547;-70
2022/05/24 11:53:55;;;;;;;;;0.00;0.00;;;;;21.32;34.71;100684.69;5076550;27;45324;-69
2022/05/24 11:56:24;;;;;;;;;0.00;0.00;;;;;20.95;35.75;100694.56;5068907;28;45405;-69
2022/05/24 11:58:53;;;;;;;;;0.33;0.33;;;;;21.43;35.76;100689.50;5090982;27;47937;-69
2022/05/24 12:01:19;;;;;;;;;0.00;0.00;;;;;22.07;35.21;100688.47;5085208;27;45404;-69
2022/05/24 12:10:04;;;;;;;;;2.00;0.00;;;;;22.42;35.17;100681.38;5074133;28;45605;-70
2022/05/24 12:12:52;;;;;;;;;0.67;0.67;;;;;22.70;35.33;100688.31;5092028;27;45414;-68
2022/05/24 12:15:19;;;;;;;;;0.67;0.67;;;;;22.48;36.77;100680.44;5076938;27;45491;-69